Time;durP1;ratioP1;P1;durP2;ratioP2;P2;SDS_P1;SDS_P2;PMS_P1;PMS_P2;Temp;Humidity;BMP_temperature;BMP_pressure;BME280_temperature;BME280_humidity;BME280_pressure;Samples;Min_cycle;Max_cycle;Signal;HPM_P1;HPM_P2
2023/05/20 00:01:28;;;;;;;3.83;2.73;;;;;;;17.37;52.39;98171.16;8479659;28;20598;-70
2023/05/20 00:05:31;;;;;;;4.23;2.90;;;;;;;17.43;52.08;98171.69;8479633;28;20231;-69
2023/05/20 00:09:34;;;;;;;3.33;3.00;;;;;;;17.46;52.15;98164.47;8479615;27;20227;-70
2023/05/20 00:13:37;;;;;;;3.60;3.30;;;;;;;17.44;52.12;98163.75;8479537;28;20229;-69
2023/05/20 00:17:42;;;;;;;3.60;3.30;;;;;;;17.42;52.89;98168.25;8479361;28;20243;-70
2023/05/20 00:21:45;;;;;;;3.27;3.00;;;;;;;17.45;52.65;98164.56;8479444;28;20220;-69
2023/05/20 00:25:47;;;;;;;3.10;2.90;;;;;;;17.43;52.50;98158.59;8479454;27;20226;-70
2023/05/20 00:29:50;;;;;;;3.10;2.90;;;;;;;17.48;52.67;98159.13;8479079;27;20237;-70
2023/05/20 00:33:54;;;;;;;3.33;3.13;;;;;;;17.98;51.13;98157.38;8478018;28;20389;-69
2023/05/20 00:37:57;;;;;;;3.00;2.80;;;;;;;17.59;52.43;98151.34;8479213;28;20223;-69
2023/05/20 00:42:02;;;;;;;3.07;2.80;;;;;;;17.52;52.81;98150.13;8478921;28;20291;-69
2023/05/20 00:46:05;;;;;;;3.20;3.00;;;;;;;17.47;52.91;98152.22;8479049;28;20235;-69
2023/05/20 00:50:10;;;;;;;3.63;3.30;;;;;;;17.45;53.44;98151.47;8478799;28;20229;-69
2023/05/20 00:54:13;;;;;;;3.40;3.10;;;;;;;17.49;53.42;98158.16;8484624;27;20230;-69
2023/05/20 00:58:16;;;;;;;3.83;3.00;;;;;;;17.46;53.71;98145.28;8485603;27;20529;-69
2023/05/20 01:02:19;;;;;;;3.97;3.33;;;;;;;17.46;53.71;98143.53;8476561;27;20228;-70
2023/05/20 01:06:24;;;;;;;3.23;2.97;;;;;;;17.43;53.71;98153.38;8485034;27;20300;-70
2023/05/20 01:10:29;;;;;;;3.30;3.10;;;;;;;17.42;54.04;98138.59;8485477;27;20260;-70
2023/05/20 01:14:36;;;;;;;3.80;3.40;;;;;;;17.39;54.16;98140.47;8485290;28;20416;-70
2023/05/20 01:18:39;;;;;;;3.77;3.47;;;;;;;17.37;54.41;98142.38;8484556;27;20384;-70
2023/05/20 01:22:49;;;;;;;3.77;3.33;;;;;;;17.33;54.26;98134.84;8484673;28;20487;-69
2023/05/20 01:26:51;;;;;;;3.77;3.43;;;;;;;17.38;54.29;98130.97;8484588;27;20225;-70
2023/05/20 01:30:56;;;;;;;4.60;3.77;;;;;;;17.40;54.56;98136.06;8484782;27;20519;-70
2023/05/20 01:35:00;;;;;;;3.53;3.23;;;;;;;17.32;54.31;98123.53;8484559;27;20426;-70
2023/05/20 01:39:43;;;;;;;3.67;3.30;;;;;;;17.26;54.37;98123.13;8484494;27;20287;-70
2023/05/20 01:43:45;;;;;;;4.60;3.77;;;;;;;17.20;54.70;98116.53;8479331;28;20489;-70
2023/05/20 01:47:48;;;;;;;4.03;3.70;;;;;;;17.17;55.18;98114.13;8484003;28;20228;-69
2023/05/20 01:51:51;;;;;;;4.60;3.90;;;;;;;17.08;55.16;98102.53;8484119;27;20255;-69
2023/05/20 01:55:56;;;;;;;4.20;3.80;;;;;;;17.12;55.13;98106.59;8483791;27;20253;-70
2023/05/20 01:59:58;;;;;;;4.70;3.87;;;;;;;17.33;54.60;98119.16;8483644;27;20232;-70
2023/05/20 02:04:01;;;;;;;4.23;3.93;;;;;;;17.06;55.20;98085.22;8483428;27;20226;-69
2023/05/20 02:08:04;;;;;;;4.67;4.07;;;;;;;17.28;54.97;98092.44;8483392;28;20234;-70
2023/05/20 02:12:15;;;;;;;4.77;4.37;;;;;;;17.15;55.25;98105.53;8483417;27;20234;-69
2023/05/20 02:16:18;;;;;;;4.97;4.30;;;;;;;17.24;55.54;98114.53;8482628;27;20224;-70
2023/05/20 02:20:21;;;;;;;4.40;4.10;;;;;;;17.33;55.32;98109.50;8482816;27;20229;-70
2023/05/20 02:24:24;;;;;;;4.73;4.33;;;;;;;17.17;55.57;98101.88;8483061;27;20431;-70
2023/05/20 02:28:28;;;;;;;4.20;3.90;;;;;;;17.34;55.13;98102.47;8482748;27;20562;-69
2023/05/20 02:32:32;;;;;;;4.20;3.90;;;;;;;17.25;55.35;98103.97;8482845;28;20234;-69
2023/05/20 02:36:35;;;;;;;4.60;4.20;;;;;;;17.26;55.49;98094.34;8482989;28;20239;-69
2023/05/20 02:40:38;;;;;;;4.67;4.27;;;;;;;17.29;55.28;98094.97;8482513;27;20664;-69
2023/05/20 02:44:42;;;;;;;4.90;4.50;;;;;;;17.26;55.31;98110.03;8482094;28;20390;-69
2023/05/20 02:48:45;;;;;;;4.60;4.20;;;;;;;17.25;55.57;98103.97;8482006;28;20255;-70
2023/05/20 02:52:47;;;;;;;4.37;3.97;;;;;;;17.17;56.03;98107.13;8481834;27;20226;-70
2023/05/20 02:56:50;;;;;;;5.27;4.50;;;;;;;16.61;56.15;98012.41;8481749;27;20224;-70
2023/05/20 03:00:56;;;;;;;4.80;4.37;;;;;;;17.13;55.73;98102.19;8481506;28;20237;-70
2023/05/20 03:04:59;;;;;;;4.40;3.93;;;;;;;17.07;55.77;98105.22;8481415;27;20227;-69
2023/05/20 03:09:02;;;;;;;4.93;4.23;;;;;;;17.13;55.58;98110.03;8481612;27;20237;-69
2023/05/20 03:13:07;;;;;;;4.43;4.03;;;;;;;17.06;56.01;98098.31;8481283;27;20231;-69
2023/05/20 03:17:11;;;;;;;4.57;4.17;;;;;;;17.00;56.26;98110.03;8480492;28;20717;-69
2023/05/20 03:21:14;;;;;;;4.87;4.37;;;;;;;16.90;56.46;98109.00;8481372;28;20233;-69
2023/05/20 03:25:17;;;;;;;4.90;4.50;;;;;;;16.96;56.10;98109.44;8480874;27;20401;-69
2023/05/20 03:29:20;;;;;;;4.80;4.40;;;;;;;16.92;56.39;98110.56;8472303;28;20232;-70
2023/05/20 03:33:26;;;;;;;4.40;4.10;;;;;;;16.97;56.36;98108.47;8480336;27;20230;-70
2023/05/20 03:37:28;;;;;;;4.87;4.47;;;;;;;16.92;56.86;98102.72;8480768;27;20233;-70
2023/05/20 03:41:33;;;;;;;5.40;4.90;;;;;;;16.83;56.51;98098.13;8480925;28;20534;-69
2023/05/20 03:45:36;;;;;;;5.17;4.67;;;;;;;16.92;56.56;98115.78;8480311;27;20224;-69
2023/05/20 03:49:40;;;;;;;4.97;4.57;;;;;;;16.94;56.42;98115.69;8480417;28;20258;-70
2023/05/20 03:53:43;;;;;;;5.00;4.60;;;;;;;16.95;56.63;98115.59;8480199;28;20502;-69
2023/05/20 03:57:46;;;;;;;5.50;5.00;;;;;;;16.99;56.67;98113.59;8480304;27;20228;-70
2023/05/20 04:01:49;;;;;;;5.60;5.10;;;;;;;16.91;56.42;98108.06;8479849;27;20236;-70
2023/05/20 04:05:53;;;;;;;5.03;4.63;;;;;;;16.88;56.56;98109.09;8480021;28;20529;-69
2023/05/20 04:09:57;;;;;;;5.63;5.07;;;;;;;16.95;56.73;98130.47;8480040;28;20236;-70
2023/05/20 04:14:00;;;;;;;5.10;4.70;;;;;;;17.00;56.17;98125.72;8479700;27;20221;-70
2023/05/20 04:18:04;;;;;;;5.23;4.83;;;;;;;16.89;56.52;98113.41;8479565;27;20224;-70
2023/05/20 04:22:08;;;;;;;5.30;4.80;;;;;;;16.88;56.56;98121.34;8479562;28;20542;-69
2023/05/20 04:26:11;;;;;;;5.00;4.60;;;;;;;17.07;55.88;98120.94;8478696;28;20244;-69
2023/05/20 04:30:15;;;;;;;5.27;4.70;;;;;;;16.97;57.04;98116.31;8479307;28;20284;-69
2023/05/20 04:34:25;;;;;;;5.23;4.83;;;;;;;17.03;56.68;98104.59;8478366;27;20435;-70
2023/05/20 04:38:31;;;;;;;5.63;4.93;;;;;;;17.05;56.73;98105.34;8479473;27;20360;-70
2023/05/20 04:42:34;;;;;;;5.43;5.03;;;;;;;17.10;56.50;98108.47;8479255;28;20568;-70
2023/05/20 04:46:36;;;;;;;5.80;5.30;;;;;;;17.00;56.95;98116.13;8479284;28;20230;-70
2023/05/20 04:50:40;;;;;;;6.13;5.50;;;;;;;17.10;55.92;98105.88;8479478;27;20272;-70
2023/05/20 04:54:44;;;;;;;5.63;5.23;;;;;;;17.19;56.41;98113.09;8479478;28;20527;-70
2023/05/20 04:58:47;;;;;;;6.10;5.50;;;;;;;17.27;56.38;98111.69;8479296;28;20227;-70
2023/05/20 05:02:50;;;;;;;6.50;5.77;;;;;;;17.41;55.86;98108.97;8479168;27;20230;-70
2023/05/20 05:06:53;;;;;;;5.37;4.97;;;;;;;17.52;55.63;98116.06;8479011;27;20223;-70
2023/05/20 05:10:57;;;;;;;5.77;5.37;;;;;;;17.51;56.37;98115.22;8479441;28;20235;-70
2023/05/20 05:15:00;;;;;;;6.30;5.80;;;;;;;17.64;55.50;98107.34;8479349;28;20227;-70
2023/05/20 05:19:03;;;;;;;6.33;5.67;;;;;;;17.82;55.28;98101.72;8478972;27;20362;-70
2023/05/20 05:23:06;;;;;;;6.37;5.87;;;;;;;17.38;55.60;98072.53;8479224;28;20234;-70
2023/05/20 05:27:10;;;;;;;6.40;5.90;;;;;;;17.55;56.08;98095.75;8479269;28;20233;-70
2023/05/20 05:31:13;;;;;;;7.40;6.80;;;;;;;17.25;56.30;98080.41;8478839;27;20546;-70
2023/05/20 05:35:17;;;;;;;7.50;6.93;;;;;;;17.39;56.53;98098.59;8478765;28;20427;-70
2023/05/20 05:39:20;;;;;;;7.30;6.80;;;;;;;17.38;56.46;98094.31;8473861;28;20233;-70
2023/05/20 05:43:25;;;;;;;8.20;7.50;;;;;;;17.86;55.50;98090.13;8484867;27;20268;-70
2023/05/20 05:47:31;;;;;;;7.30;6.70;;;;;;;17.79;55.55;98087.09;8484408;27;20230;-70
2023/05/20 05:51:34;;;;;;;7.47;6.87;;;;;;;17.89;55.47;98080.25;8484413;27;20297;-70
2023/05/20 05:55:40;;;;;;;8.50;7.70;;;;;;;17.51;56.17;98081.19;8484489;27;20232;-69
2023/05/20 05:59:44;;;;;;;9.13;8.23;;;;;;;17.63;55.61;98078.63;8484311;28;20231;-70
2023/05/20 06:03:47;;;;;;;7.57;6.97;;;;;;;17.80;55.25;98075.66;8484253;28;20237;-70
2023/05/20 06:07:50;;;;;;;7.37;6.77;;;;;;;17.82;55.60;98091.25;8484122;28;20328;-70
2023/05/20 06:11:52;;;;;;;7.80;7.10;;;;;;;17.58;55.36;98086.84;8484005;27;20226;-70
2023/05/20 06:15:57;;;;;;;7.30;6.70;;;;;;;17.68;55.79;98074.75;8483928;28;20244;-69
2023/05/20 06:20:00;;;;;;;8.27;7.57;;;;;;;17.62;55.41;98061.28;8483898;28;20563;-68
2023/05/20 06:24:02;;;;;;;7.60;7.00;;;;;;;18.32;54.71;98060.56;8483796;27;20417;-70
2023/05/20 06:28:07;;;;;;;7.73;7.03;;;;;;;18.49;54.23;98054.06;8483426;28;20234;-70
2023/05/20 06:32:11;;;;;;;7.10;6.40;;;;;;;18.68;53.68;98064.81;8483440;27;20442;-70
2023/05/20 06:36:14;;;;;;;8.30;7.50;;;;;;;18.31;53.81;98043.97;8483173;28;20519;-70
2023/05/20 06:40:18;;;;;;;7.47;6.83;;;;;;;18.40;54.02;98050.31;8483050;27;20329;-71
2023/05/20 06:44:20;;;;;;;7.23;6.63;;;;;;;18.29;54.09;98031.94;8474472;27;20287;-71
2023/05/20 06:48:25;;;;;;;7.97;7.17;;;;;;;18.49;53.56;98054.06;8482305;27;20429;-71
2023/05/20 06:52:27;;;;;;;6.77;6.20;;;;;;;19.19;52.11;98049.59;8482135;28;20230;-71
2023/05/20 06:56:30;;;;;;;7.50;6.83;;;;;;;18.97;52.42;98050.44;8482559;27;20374;-71
2023/05/20 07:00:33;;;;;;;7.47;6.87;;;;;;;18.86;52.25;98046.03;8482602;28;20294;-71
2023/05/20 07:04:37;;;;;;;8.10;7.30;;;;;;;18.78;51.48;98028.22;8482016;27;20237;-69
2023/05/20 07:08:40;;;;;;;6.83;6.23;;;;;;;19.53;50.06;98037.25;8481407;28;20227;-71
2023/05/20 07:12:44;;;;;;;7.77;6.97;;;;;;;19.01;50.50;98036.13;8481469;27;20233;-71
2023/05/20 07:16:46;;;;;;;7.70;7.10;;;;;;;19.22;50.23;98038.88;8481365;27;20237;-71
2023/05/20 07:20:50;;;;;;;7.00;6.40;;;;;;;19.45;50.38;98040.50;8481160;28;20223;-71
2023/05/20 07:24:53;;;;;;;7.57;6.87;;;;;;;19.42;49.33;98032.03;8481206;28;20295;-71
2023/05/20 07:28:56;;;;;;;7.03;6.53;;;;;;;19.78;49.80;98030.06;8480951;28;20476;-71
2023/05/20 07:32:59;;;;;;;7.10;6.50;;;;;;;20.04;49.19;98022.69;8480939;27;20242;-71
2023/05/20 07:37:04;;;;;;;7.17;6.53;;;;;;;19.90;49.15;98022.03;8481150;28;20223;-71
2023/05/20 07:41:06;;;;;;;7.23;6.63;;;;;;;20.44;48.15;98014.13;8481086;27;20234;-71
2023/05/20 07:45:10;;;;;;;7.83;7.23;;;;;;;19.79;47.94;98022.06;8481045;28;20449;-71
2023/05/20 07:49:14;;;;;;;7.53;6.93;;;;;;;20.57;47.46;98029.69;8480608;28;20233;-70
2023/05/20 07:53:19;;;;;;;7.70;7.10;;;;;;;20.02;47.73;98020.19;8480400;28;20247;-71
2023/05/20 07:57:21;;;;;;;7.93;7.13;;;;;;;20.13;47.40;98019.31;8446443;27;20488;-71
2023/05/20 08:01:24;;;;;;;7.33;6.70;;;;;;;20.57;47.80;98014.75;8445984;28;20243;-71
2023/05/20 08:05:28;;;;;;;7.63;7.03;;;;;;;20.74;46.79;98004.63;8446217;27;20423;-73
2023/05/20 08:09:34;;;;;;;7.60;7.00;;;;;;;20.36;46.89;98012.13;8446429;28;20259;-72
2023/05/20 08:13:37;;;;;;;8.03;6.77;;;;;;;21.20;45.11;98005.91;8446040;28;20233;-71
2023/05/20 08:17:40;;;;;;;7.60;7.00;;;;;;;21.39;44.50;98005.94;8445717;28;20245;-72
2023/05/20 08:21:43;;;;;;;7.63;7.03;;;;;;;20.57;45.79;97988.44;8445619;27;20227;-71
2023/05/20 08:25:47;;;;;;;8.00;7.20;;;;;;;20.45;45.71;97986.88;8445802;28;20234;-70
2023/05/20 08:29:50;;;;;;;7.73;7.03;;;;;;;21.69;43.22;97977.88;8445503;28;20503;-70
2023/05/20 08:33:53;;;;;;;7.13;6.53;;;;;;;22.34;43.28;97969.41;8445213;27;20297;-70
2023/05/20 08:37:56;;;;;;;7.67;7.00;;;;;;;22.13;42.92;97985.38;8445846;28;20434;-71
2023/05/20 08:42:00;;;;;;;7.30;6.63;;;;;;;21.43;45.03;97993.34;8445853;28;20400;-71
2023/05/20 08:46:05;;;;;;;7.57;6.77;;;;;;;21.48;44.31;97981.47;8445478;27;20223;-71
2023/05/20 08:50:09;;;;;;;7.57;6.83;;;;;;;21.12;44.75;97990.78;8445918;28;20228;-72
2023/05/20 08:54:12;;;;;;;7.70;7.00;;;;;;;21.88;43.24;97979.69;8446062;28;20364;-72
2023/05/20 08:58:18;;;;;;;6.97;6.37;;;;;;;22.79;42.17;97980.09;8445896;27;20234;-71
2023/05/20 09:02:22;;;;;;;6.83;6.33;;;;;;;23.20;42.46;97979.78;8470933;28;20298;-72
2023/05/20 09:06:25;;;;;;;8.40;7.60;;;;;;;22.70;41.70;97972.22;8479270;27;20299;-70
2023/05/20 09:10:27;;;;;;;8.40;7.60;;;;;;;23.52;41.41;97974.03;8479341;28;20231;-70
2023/05/20 09:14:31;;;;;;;7.10;6.50;;;;;;;23.58;40.72;97980.53;8483103;27;20541;-70
2023/05/20 09:18:37;;;;;;;7.47;6.77;;;;;;;24.42;39.08;97976.63;8485647;27;20227;-70
2023/05/20 09:22:40;;;;;;;7.87;7.27;;;;;;;23.16;40.00;97979.25;8485634;27;20295;-70
2023/05/20 09:26:43;;;;;;;7.40;6.80;;;;;;;23.47;39.68;97986.84;8485638;27;20219;-69
2023/05/20 09:30:50;;;;;;;7.63;6.90;;;;;;;23.68;40.10;97991.84;8485255;27;20231;-71
2023/05/20 09:34:53;;;;;;;7.13;6.53;;;;;;;23.91;39.98;97976.44;8485262;28;20534;-71
2023/05/20 09:39:02;;;;;;;6.43;5.90;;;;;;;24.97;38.69;97970.16;8485130;27;20227;-71
2023/05/20 09:43:06;;;;;;;7.00;6.40;;;;;;;23.77;38.83;97972.44;8485201;27;20283;-70
2023/05/20 09:47:11;;;;;;;8.00;7.20;;;;;;;23.51;39.27;97976.81;8485040;27;20230;-70
2023/05/20 09:51:15;;;;;;;7.00;6.43;;;;;;;23.51;38.29;97971.53;8484456;27;20223;-70
2023/05/20 09:55:19;;;;;;;7.63;6.83;;;;;;;22.48;41.02;97968.94;8476147;28;20511;-72
2023/05/20 09:59:26;;;;;;;7.30;6.70;;;;;;;23.13;40.41;97962.88;8484582;27;20251;-71
2023/05/20 10:03:32;;;;;;;7.47;6.67;;;;;;;23.45;39.86;97958.94;8484063;28;20491;-71
2023/05/20 10:08:00;;;;;;;7.20;6.50;;;;;;;22.86;40.83;97953.09;8484036;27;20290;-70
2023/05/20 10:12:10;;;;;;;7.10;6.50;;;;;;;22.33;40.79;97920.25;8481526;27;20296;-70
2023/05/20 10:16:22;;;;;;;6.43;5.93;;;;;;;22.13;41.83;97879.88;8483459;28;20231;-70
2023/05/20 10:20:26;;;;;;;6.90;6.30;;;;;;;23.55;39.08;97949.09;8482983;28;20227;-70
2023/05/20 10:24:31;;;;;;;7.23;6.30;;;;;;;23.69;39.31;97934.56;8482916;28;20405;-72
2023/05/20 10:28:35;;;;;;;7.57;6.60;;;;;;;23.69;38.95;97903.66;8482630;27;20364;-70
2023/05/20 10:32:49;;;;;;;7.70;6.10;;;;;;;23.33;40.19;97923.97;8482319;27;20249;-70
2023/05/20 10:37:00;;;;;;;6.23;5.70;;;;;;;24.24;39.54;97901.75;8482692;28;20227;-71
2023/05/20 10:41:10;;;;;;;7.10;6.40;;;;;;;23.14;40.77;97919.63;8482146;27;20576;-71
2023/05/20 10:45:13;;;;;;;6.83;6.20;;;;;;;23.46;39.47;97868.13;8482179;27;20567;-72
2023/05/20 10:49:19;;;;;;;7.23;6.70;;;;;;;23.00;40.44;97921.78;8481685;27;20354;-71
2023/05/20 10:53:30;;;;;;;6.67;6.17;;;;;;;23.16;41.15;97915.84;8481601;28;20400;-70
2023/05/20 10:57:36;;;;;;;6.63;6.13;;;;;;;23.52;39.33;97904.50;8481269;27;20272;-70
2023/05/20 11:01:39;;;;;;;7.23;6.73;;;;;;;22.61;40.82;97915.84;8480770;28;20227;-70
2023/05/20 11:05:42;;;;;;;7.27;6.57;;;;;;;22.98;40.32;97899.97;8480731;28;20246;-70
2023/05/20 11:09:50;;;;;;;7.23;6.73;;;;;;;24.39;39.03;97901.03;8480648;27;20507;-69
2023/05/20 11:13:53;;;;;;;6.37;5.87;;;;;;;24.12;39.98;97899.38;8481031;27;20222;-69
2023/05/20 11:17:57;;;;;;;6.60;6.10;;;;;;;24.32;37.96;97896.50;8480626;27;20225;-69
2023/05/20 11:22:00;;;;;;;6.57;5.73;;;;;;;25.12;37.84;97889.06;8480434;27;20291;-69
2023/05/20 11:26:04;;;;;;;7.30;6.70;;;;;;;25.01;36.55;97876.13;8480359;28;20587;-68
2023/05/20 11:30:08;;;;;;;7.73;6.70;;;;;;;24.72;37.52;97882.66;8480228;28;20556;-68
2023/05/20 11:34:11;;;;;;;7.17;6.57;;;;;;;25.11;35.97;97876.84;8480374;28;20287;-70
2023/05/20 11:38:14;;;;;;;7.57;6.87;;;;;;;25.28;36.23;97867.09;8479224;28;20215;-69
